sensor_id;sensor_type;location;lat;lon;timestamp;P1;durP1;ratioP1;P2;durP2;ratioP2
58083;SDS011;43882;51.550;11.858;2023-05-23T00:00:27;22.60;;;12.55;;
58083;SDS011;43882;51.550;11.858;2023-05-23T00:03:52;25.05;;;13.38;;
58083;SDS011;43882;51.550;11.858;2023-05-23T00:07:22;24.25;;;13.82;;
58083;SDS011;43882;51.550;11.858;2023-05-23T00:10:46;24.00;;;13.18;;
58083;SDS011;43882;51.550;11.858;2023-05-23T00:14:11;24.65;;;13.30;;
58083;SDS011;43882;51.550;11.858;2023-05-23T00:17:37;26.00;;;13.85;;
58083;SDS011;43882;51.550;11.858;2023-05-23T00:21:02;24.15;;;13.38;;
58083;SDS011;43882;51.550;11.858;2023-05-23T00:24:27;24.38;;;13.45;;
58083;SDS011;43882;51.550;11.858;2023-05-23T00:27:57;23.90;;;12.75;;
58083;SDS011;43882;51.550;11.858;2023-05-23T00:31:23;25.33;;;13.95;;
58083;SDS011;43882;51.550;11.858;2023-05-23T00:34:48;22.83;;;13.23;;
58083;SDS011;43882;51.550;11.858;2023-05-23T00:38:13;24.27;;;14.18;;
58083;SDS011;43882;51.550;11.858;2023-05-23T00:41:47;28.30;;;14.68;;
58083;SDS011;43882;51.550;11.858;2023-05-23T00:45:12;26.60;;;15.10;;
58083;SDS011;43882;51.550;11.858;2023-05-23T00:48:37;25.20;;;14.23;;
58083;SDS011;43882;51.550;11.858;2023-05-23T00:52:02;24.58;;;14.40;;
58083;SDS011;43882;51.550;11.858;2023-05-23T00:55:27;26.75;;;14.98;;
58083;SDS011;43882;51.550;11.858;2023-05-23T00:58:53;25.73;;;14.15;;
58083;SDS011;43882;51.550;11.858;2023-05-23T01:02:17;24.55;;;14.68;;
58083;SDS011;43882;51.550;11.858;2023-05-23T01:10:32;26.60;;;15.07;;
58083;SDS011;43882;51.550;11.858;2023-05-23T01:14:00;25.73;;;15.35;;
58083;SDS011;43882;51.550;11.858;2023-05-23T01:17:40;25.48;;;13.55;;
58083;SDS011;43882;51.550;11.858;2023-05-23T01:21:16;26.65;;;14.48;;
58083;SDS011;43882;51.550;11.858;2023-05-23T01:25:04;27.65;;;14.25;;
58083;SDS011;43882;51.550;11.858;2023-05-23T01:28:36;26.70;;;14.57;;
58083;SDS011;43882;51.550;11.858;2023-05-23T01:32:09;26.23;;;14.20;;
58083;SDS011;43882;51.550;11.858;2023-05-23T01:35:35;26.55;;;14.02;;
58083;SDS011;43882;51.550;11.858;2023-05-23T01:39:03;26.48;;;13.80;;
58083;SDS011;43882;51.550;11.858;2023-05-23T01:42:28;27.02;;;13.30;;
58083;SDS011;43882;51.550;11.858;2023-05-23T01:45:53;23.92;;;13.05;;
58083;SDS011;43882;51.550;11.858;2023-05-23T01:49:19;24.15;;;13.80;;
58083;SDS011;43882;51.550;11.858;2023-05-23T01:52:46;24.92;;;13.10;;
58083;SDS011;43882;51.550;11.858;2023-05-23T01:56:10;24.45;;;13.65;;
58083;SDS011;43882;51.550;11.858;2023-05-23T01:59:35;26.23;;;14.00;;
58083;SDS011;43882;51.550;11.858;2023-05-23T02:03:00;24.88;;;14.15;;
58083;SDS011;43882;51.550;11.858;2023-05-23T02:06:25;26.63;;;14.43;;
58083;SDS011;43882;51.550;11.858;2023-05-23T02:09:49;28.15;;;14.07;;
58083;SDS011;43882;51.550;11.858;2023-05-23T02:13:14;26.48;;;14.02;;
58083;SDS011;43882;51.550;11.858;2023-05-23T02:16:39;24.67;;;13.27;;
58083;SDS011;43882;51.550;11.858;2023-05-23T02:20:05;25.75;;;14.82;;
58083;SDS011;43882;51.550;11.858;2023-05-23T02:23:30;28.50;;;15.23;;
58083;SDS011;43882;51.550;11.858;2023-05-23T02:26:54;26.25;;;15.00;;
58083;SDS011;43882;51.550;11.858;2023-05-23T02:30:19;28.13;;;15.82;;
58083;SDS011;43882;51.550;11.858;2023-05-23T02:33:44;29.23;;;16.05;;
58083;SDS011;43882;51.550;11.858;2023-05-23T02:37:10;28.45;;;16.52;;
58083;SDS011;43882;51.550;11.858;2023-05-23T02:40:35;28.98;;;17.15;;
58083;SDS011;43882;51.550;11.858;2023-05-23T02:44:01;29.05;;;16.55;;
58083;SDS011;43882;51.550;11.858;2023-05-23T02:47:25;31.88;;;17.52;;
58083;SDS011;43882;51.550;11.858;2023-05-23T02:50:50;28.85;;;16.70;;
58083;SDS011;43882;51.550;11.858;2023-05-23T02:54:14;30.55;;;18.23;;
58083;SDS011;43882;51.550;11.858;2023-05-23T02:57:39;31.50;;;17.42;;
58083;SDS011;43882;51.550;11.858;2023-05-23T03:01:04;31.98;;;17.33;;
58083;SDS011;43882;51.550;11.858;2023-05-23T03:04:29;29.85;;;16.88;;
58083;SDS011;43882;51.550;11.858;2023-05-23T03:07:54;30.70;;;16.58;;
58083;SDS011;43882;51.550;11.858;2023-05-23T03:11:18;30.23;;;16.38;;
58083;SDS011;43882;51.550;11.858;2023-05-23T03:14:43;33.22;;;17.13;;
58083;SDS011;43882;51.550;11.858;2023-05-23T03:18:07;29.10;;;15.95;;
58083;SDS011;43882;51.550;11.858;2023-05-23T03:21:32;27.95;;;15.32;;
58083;SDS011;43882;51.550;11.858;2023-05-23T03:24:56;28.95;;;16.75;;
58083;SDS011;43882;51.550;11.858;2023-05-23T03:28:21;29.10;;;15.95;;
58083;SDS011;43882;51.550;11.858;2023-05-23T03:31:46;30.55;;;16.92;;
58083;SDS011;43882;51.550;11.858;2023-05-23T03:35:10;28.83;;;16.08;;
58083;SDS011;43882;51.550;11.858;2023-05-23T03:38:35;28.23;;;15.10;;
58083;SDS011;43882;51.550;11.858;2023-05-23T03:41:59;29.60;;;15.60;;
58083;SDS011;43882;51.550;11.858;2023-05-23T03:45:29;29.20;;;16.08;;
58083;SDS011;43882;51.550;11.858;2023-05-23T03:48:53;29.65;;;15.95;;
58083;SDS011;43882;51.550;11.858;2023-05-23T03:52:18;28.77;;;15.32;;
58083;SDS011;43882;51.550;11.858;2023-05-23T03:55:42;28.23;;;15.90;;
58083;SDS011;43882;51.550;11.858;2023-05-23T03:59:07;29.02;;;15.15;;
58083;SDS011;43882;51.550;11.858;2023-05-23T04:02:38;28.17;;;15.52;;
58083;SDS011;43882;51.550;11.858;2023-05-23T04:06:02;29.10;;;16.17;;
58083;SDS011;43882;51.550;11.858;2023-05-23T04:09:29;30.67;;;16.23;;
58083;SDS011;43882;51.550;11.858;2023-05-23T04:12:54;29.98;;;16.05;;
58083;SDS011;43882;51.550;11.858;2023-05-23T04:16:18;28.23;;;15.43;;
58083;SDS011;43882;51.550;11.858;2023-05-23T04:19:43;26.48;;;14.45;;
58083;SDS011;43882;51.550;11.858;2023-05-23T04:23:08;27.65;;;14.20;;
58083;SDS011;43882;51.550;11.858;2023-05-23T04:26:32;26.63;;;14.07;;
58083;SDS011;43882;51.550;11.858;2023-05-23T04:29:58;26.85;;;14.38;;
58083;SDS011;43882;51.550;11.858;2023-05-23T04:33:23;26.58;;;13.85;;
58083;SDS011;43882;51.550;11.858;2023-05-23T04:36:48;28.02;;;13.93;;
58083;SDS011;43882;51.550;11.858;2023-05-23T04:40:12;27.35;;;14.73;;
58083;SDS011;43882;51.550;11.858;2023-05-23T04:43:40;27.35;;;14.82;;
58083;SDS011;43882;51.550;11.858;2023-05-23T04:47:05;27.85;;;14.90;;
58083;SDS011;43882;51.550;11.858;2023-05-23T04:50:30;30.55;;;14.93;;
58083;SDS011;43882;51.550;11.858;2023-05-23T04:53:55;27.15;;;15.00;;
58083;SDS011;43882;51.550;11.858;2023-05-23T04:57:19;29.00;;;15.32;;
58083;SDS011;43882;51.550;11.858;2023-05-23T05:00:44;30.80;;;16.02;;
58083;SDS011;43882;51.550;11.858;2023-05-23T05:04:09;28.20;;;15.65;;
58083;SDS011;43882;51.550;11.858;2023-05-23T05:07:33;31.15;;;16.52;;
58083;SDS011;43882;51.550;11.858;2023-05-23T05:10:58;28.23;;;15.20;;
58083;SDS011;43882;51.550;11.858;2023-05-23T05:14:23;31.02;;;16.15;;
58083;SDS011;43882;51.550;11.858;2023-05-23T05:17:49;31.10;;;16.55;;
58083;SDS011;43882;51.550;11.858;2023-05-23T05:21:13;30.67;;;17.27;;
58083;SDS011;43882;51.550;11.858;2023-05-23T05:24:39;32.58;;;17.15;;
58083;SDS011;43882;51.550;11.858;2023-05-23T05:28:05;30.65;;;15.52;;
58083;SDS011;43882;51.550;11.858;2023-05-23T05:31:29;31.67;;;16.40;;
58083;SDS011;43882;51.550;11.858;2023-05-23T05:35:03;32.55;;;16.35;;
58083;SDS011;43882;51.550;11.858;2023-05-23T05:38:30;33.20;;;16.30;;
58083;SDS011;43882;51.550;11.858;2023-05-23T05:41:55;33.08;;;17.25;;
58083;SDS011;43882;51.550;11.858;2023-05-23T05:45:19;32.28;;;16.23;;
58083;SDS011;43882;51.550;11.858;2023-05-23T05:48:44;29.25;;;13.95;;
58083;SDS011;43882;51.550;11.858;2023-05-23T05:52:09;27.50;;;13.32;;
58083;SDS011;43882;51.550;11.858;2023-05-23T05:55:34;29.65;;;14.30;;
58083;SDS011;43882;51.550;11.858;2023-05-23T05:58:58;28.58;;;13.55;;
58083;SDS011;43882;51.550;11.858;2023-05-23T06:02:23;27.00;;;12.98;;
58083;SDS011;43882;51.550;11.858;2023-05-23T06:05:48;24.33;;;11.73;;
58083;SDS011;43882;51.550;11.858;2023-05-23T06:09:13;26.77;;;12.07;;
58083;SDS011;43882;51.550;11.858;2023-05-23T06:12:38;26.08;;;12.18;;
58083;SDS011;43882;51.550;11.858;2023-05-23T06:16:02;25.08;;;11.15;;
58083;SDS011;43882;51.550;11.858;2023-05-23T06:19:27;23.98;;;10.75;;
58083;SDS011;43882;51.550;11.858;2023-05-23T06:22:52;25.83;;;11.38;;
58083;SDS011;43882;51.550;11.858;2023-05-23T06:26:17;23.35;;;10.50;;
58083;SDS011;43882;51.550;11.858;2023-05-23T06:29:41;26.17;;;11.32;;
58083;SDS011;43882;51.550;11.858;2023-05-23T06:33:06;24.27;;;10.40;;
58083;SDS011;43882;51.550;11.858;2023-05-23T06:36:31;23.25;;;10.52;;
58083;SDS011;43882;51.550;11.858;2023-05-23T06:39:55;23.98;;;10.63;;
58083;SDS011;43882;51.550;11.858;2023-05-23T06:43:20;22.02;;;10.18;;
58083;SDS011;43882;51.550;11.858;2023-05-23T06:46:45;22.80;;;9.77;;
58083;SDS011;43882;51.550;11.858;2023-05-23T06:50:11;23.42;;;9.90;;
58083;SDS011;43882;51.550;11.858;2023-05-23T06:53:36;24.55;;;10.10;;
58083;SDS011;43882;51.550;11.858;2023-05-23T06:57:01;20.30;;;9.80;;
58083;SDS011;43882;51.550;11.858;2023-05-23T07:00:27;21.10;;;8.70;;
58083;SDS011;43882;51.550;11.858;2023-05-23T07:03:52;21.10;;;9.40;;
58083;SDS011;43882;51.550;11.858;2023-05-23T07:07:17;21.88;;;9.18;;
58083;SDS011;43882;51.550;11.858;2023-05-23T07:10:41;19.60;;;8.52;;
58083;SDS011;43882;51.550;11.858;2023-05-23T07:14:06;22.55;;;9.80;;
58083;SDS011;43882;51.550;11.858;2023-05-23T07:17:31;20.38;;;8.88;;
58083;SDS011;43882;51.550;11.858;2023-05-23T07:20:55;21.42;;;8.45;;
58083;SDS011;43882;51.550;11.858;2023-05-23T07:24:20;21.80;;;9.70;;
58083;SDS011;43882;51.550;11.858;2023-05-23T07:27:47;20.80;;;8.10;;
58083;SDS011;43882;51.550;11.858;2023-05-23T07:31:11;22.25;;;9.70;;
58083;SDS011;43882;51.550;11.858;2023-05-23T07:34:36;21.35;;;8.25;;
58083;SDS011;43882;51.550;11.858;2023-05-23T07:38:00;19.35;;;8.18;;
58083;SDS011;43882;51.550;11.858;2023-05-23T07:41:26;19.77;;;8.13;;
58083;SDS011;43882;51.550;11.858;2023-05-23T07:44:50;19.75;;;8.65;;
58083;SDS011;43882;51.550;11.858;2023-05-23T07:48:15;19.70;;;8.52;;
58083;SDS011;43882;51.550;11.858;2023-05-23T07:51:39;19.77;;;8.30;;
58083;SDS011;43882;51.550;11.858;2023-05-23T07:55:04;19.23;;;7.88;;
58083;SDS011;43882;51.550;11.858;2023-05-23T07:58:32;18.55;;;7.75;;
58083;SDS011;43882;51.550;11.858;2023-05-23T08:01:56;19.98;;;8.25;;
58083;SDS011;43882;51.550;11.858;2023-05-23T08:05:21;20.70;;;8.45;;
58083;SDS011;43882;51.550;11.858;2023-05-23T08:08:45;19.73;;;8.27;;
58083;SDS011;43882;51.550;11.858;2023-05-23T08:12:10;19.85;;;6.80;;
58083;SDS011;43882;51.550;11.858;2023-05-23T08:15:35;17.45;;;6.32;;
58083;SDS011;43882;51.550;11.858;2023-05-23T08:19:00;16.23;;;6.13;;
58083;SDS011;43882;51.550;11.858;2023-05-23T08:22:25;17.63;;;6.35;;
58083;SDS011;43882;51.550;11.858;2023-05-23T08:25:51;17.85;;;5.72;;
58083;SDS011;43882;51.550;11.858;2023-05-23T08:29:15;15.80;;;5.53;;
58083;SDS011;43882;51.550;11.858;2023-05-23T08:32:40;15.60;;;5.20;;
58083;SDS011;43882;51.550;11.858;2023-05-23T08:36:05;15.63;;;5.07;;
58083;SDS011;43882;51.550;11.858;2023-05-23T08:39:30;15.30;;;5.47;;
58083;SDS011;43882;51.550;11.858;2023-05-23T08:42:54;15.65;;;5.53;;
58083;SDS011;43882;51.550;11.858;2023-05-23T08:46:19;15.13;;;5.53;;
58083;SDS011;43882;51.550;11.858;2023-05-23T08:49:45;15.45;;;5.47;;
58083;SDS011;43882;51.550;11.858;2023-05-23T08:53:11;15.93;;;5.72;;
58083;SDS011;43882;51.550;11.858;2023-05-23T08:56:38;15.80;;;5.40;;
58083;SDS011;43882;51.550;11.858;2023-05-23T09:00:07;16.50;;;5.75;;
58083;SDS011;43882;51.550;11.858;2023-05-23T09:03:34;16.98;;;6.18;;
58083;SDS011;43882;51.550;11.858;2023-05-23T09:06:58;16.85;;;5.80;;
58083;SDS011;43882;51.550;11.858;2023-05-23T09:10:23;17.90;;;5.93;;
58083;SDS011;43882;51.550;11.858;2023-05-23T09:13:48;17.35;;;6.00;;
58083;SDS011;43882;51.550;11.858;2023-05-23T09:17:19;16.98;;;5.20;;
58083;SDS011;43882;51.550;11.858;2023-05-23T09:20:43;16.10;;;5.38;;
58083;SDS011;43882;51.550;11.858;2023-05-23T09:24:08;15.13;;;4.60;;
58083;SDS011;43882;51.550;11.858;2023-05-23T09:27:33;14.05;;;4.32;;
58083;SDS011;43882;51.550;11.858;2023-05-23T09:30:59;13.93;;;3.97;;
58083;SDS011;43882;51.550;11.858;2023-05-23T09:34:24;14.80;;;3.95;;
58083;SDS011;43882;51.550;11.858;2023-05-23T09:37:49;12.50;;;3.40;;
58083;SDS011;43882;51.550;11.858;2023-05-23T09:41:18;11.98;;;3.47;;
58083;SDS011;43882;51.550;11.858;2023-05-23T09:44:47;13.10;;;3.30;;
58083;SDS011;43882;51.550;11.858;2023-05-23T09:48:11;14.13;;;3.40;;
58083;SDS011;43882;51.550;11.858;2023-05-23T09:51:40;12.10;;;3.20;;
58083;SDS011;43882;51.550;11.858;2023-05-23T09:55:05;11.80;;;3.13;;
58083;SDS011;43882;51.550;11.858;2023-05-23T09:58:30;14.05;;;3.60;;
58083;SDS011;43882;51.550;11.858;2023-05-23T10:01:56;11.60;;;3.20;;
58083;SDS011;43882;51.550;11.858;2023-05-23T10:05:37;9.63;;;2.83;;
58083;SDS011;43882;51.550;11.858;2023-05-23T10:09:04;10.77;;;3.05;;
58083;SDS011;43882;51.550;11.858;2023-05-23T10:12:46;9.73;;;2.90;;
58083;SDS011;43882;51.550;11.858;2023-05-23T10:20:11;11.52;;;3.05;;
58083;SDS011;43882;51.550;11.858;2023-05-23T10:23:39;11.88;;;3.10;;
58083;SDS011;43882;51.550;11.858;2023-05-23T10:27:06;11.00;;;3.22;;
58083;SDS011;43882;51.550;11.858;2023-05-23T10:30:30;8.45;;;2.60;;
58083;SDS011;43882;51.550;11.858;2023-05-23T10:33:57;9.13;;;2.85;;
58083;SDS011;43882;51.550;11.858;2023-05-23T10:38:01;7.68;;;2.60;;
58083;SDS011;43882;51.550;11.858;2023-05-23T10:41:35;7.63;;;2.58;;
58083;SDS011;43882;51.550;11.858;2023-05-23T10:45:16;8.38;;;2.50;;
58083;SDS011;43882;51.550;11.858;2023-05-23T10:48:43;9.13;;;2.67;;
58083;SDS011;43882;51.550;11.858;2023-05-23T10:52:09;9.38;;;2.45;;
58083;SDS011;43882;51.550;11.858;2023-05-23T10:55:35;13.25;;;2.90;;
58083;SDS011;43882;51.550;11.858;2023-05-23T10:59:01;9.32;;;2.60;;
58083;SDS011;43882;51.550;11.858;2023-05-23T11:02:29;10.82;;;3.00;;
58083;SDS011;43882;51.550;11.858;2023-05-23T11:20:43;10.65;;;3.03;;
58083;SDS011;43882;51.550;11.858;2023-05-23T11:24:08;10.93;;;3.20;;
58083;SDS011;43882;51.550;11.858;2023-05-23T11:27:37;11.32;;;3.45;;
58083;SDS011;43882;51.550;11.858;2023-05-23T11:31:19;13.07;;;4.07;;
58083;SDS011;43882;51.550;11.858;2023-05-23T11:34:43;12.75;;;3.60;;
58083;SDS011;43882;51.550;11.858;2023-05-23T11:38:10;13.25;;;3.42;;
58083;SDS011;43882;51.550;11.858;2023-05-23T11:41:34;12.73;;;3.70;;
58083;SDS011;43882;51.550;11.858;2023-05-23T11:45:00;12.13;;;3.50;;
58083;SDS011;43882;51.550;11.858;2023-05-23T11:48:31;11.30;;;3.38;;
58083;SDS011;43882;51.550;11.858;2023-05-23T11:51:58;11.00;;;3.22;;
58083;SDS011;43882;51.550;11.858;2023-05-23T11:55:22;12.85;;;3.60;;
58083;SDS011;43882;51.550;11.858;2023-05-23T11:58:47;13.48;;;3.92;;
58083;SDS011;43882;51.550;11.858;2023-05-23T12:02:12;11.38;;;3.13;;
58083;SDS011;43882;51.550;11.858;2023-05-23T12:05:36;12.85;;;3.88;;
58083;SDS011;43882;51.550;11.858;2023-05-23T12:09:02;15.63;;;4.78;;
58083;SDS011;43882;51.550;11.858;2023-05-23T12:12:28;14.80;;;4.70;;
58083;SDS011;43882;51.550;11.858;2023-05-23T12:15:56;15.13;;;4.32;;
58083;SDS011;43882;51.550;11.858;2023-05-23T12:19:22;15.50;;;4.80;;
58083;SDS011;43882;51.550;11.858;2023-05-23T12:22:47;14.85;;;4.05;;
58083;SDS011;43882;51.550;11.858;2023-05-23T12:26:11;16.05;;;4.18;;
58083;SDS011;43882;51.550;11.858;2023-05-23T12:29:36;12.27;;;3.78;;
58083;SDS011;43882;51.550;11.858;2023-05-23T12:33:07;12.02;;;3.30;;
58083;SDS011;43882;51.550;11.858;2023-05-23T12:36:32;10.48;;;3.00;;
58083;SDS011;43882;51.550;11.858;2023-05-23T12:39:57;11.00;;;3.25;;
58083;SDS011;43882;51.550;11.858;2023-05-23T12:43:36;13.63;;;3.35;;
58083;SDS011;43882;51.550;11.858;2023-05-23T12:47:01;14.30;;;4.20;;
58083;SDS011;43882;51.550;11.858;2023-05-23T12:50:26;14.32;;;4.30;;
58083;SDS011;43882;51.550;11.858;2023-05-23T12:53:51;15.73;;;4.45;;
58083;SDS011;43882;51.550;11.858;2023-05-23T12:57:16;14.48;;;4.38;;
58083;SDS011;43882;51.550;11.858;2023-05-23T13:00:40;16.92;;;4.00;;
58083;SDS011;43882;51.550;11.858;2023-05-23T13:04:05;15.20;;;4.38;;
58083;SDS011;43882;51.550;11.858;2023-05-23T13:07:29;14.88;;;4.05;;
58083;SDS011;43882;51.550;11.858;2023-05-23T13:10:54;13.25;;;3.70;;
58083;SDS011;43882;51.550;11.858;2023-05-23T13:14:19;13.43;;;3.75;;
58083;SDS011;43882;51.550;11.858;2023-05-23T13:17:44;13.07;;;3.22;;
58083;SDS011;43882;51.550;11.858;2023-05-23T13:21:08;12.73;;;3.90;;
58083;SDS011;43882;51.550;11.858;2023-05-23T13:24:36;16.65;;;4.95;;
58083;SDS011;43882;51.550;11.858;2023-05-23T13:28:00;16.15;;;5.18;;
58083;SDS011;43882;51.550;11.858;2023-05-23T13:31:25;16.20;;;5.15;;
58083;SDS011;43882;51.550;11.858;2023-05-23T13:34:50;16.63;;;4.95;;
58083;SDS011;43882;51.550;11.858;2023-05-23T13:38:17;16.80;;;4.90;;
58083;SDS011;43882;51.550;11.858;2023-05-23T13:41:42;16.30;;;5.22;;
58083;SDS011;43882;51.550;11.858;2023-05-23T13:45:07;16.60;;;4.80;;
58083;SDS011;43882;51.550;11.858;2023-05-23T13:48:31;14.95;;;4.85;;
58083;SDS011;43882;51.550;11.858;2023-05-23T13:51:56;17.17;;;5.65;;
58083;SDS011;43882;51.550;11.858;2023-05-23T13:55:21;15.05;;;5.07;;
58083;SDS011;43882;51.550;11.858;2023-05-23T13:58:45;17.52;;;5.60;;
58083;SDS011;43882;51.550;11.858;2023-05-23T14:02:10;17.50;;;6.32;;
58083;SDS011;43882;51.550;11.858;2023-05-23T14:05:34;18.80;;;6.30;;
58083;SDS011;43882;51.550;11.858;2023-05-23T14:09:00;18.70;;;7.57;;
58083;SDS011;43882;51.550;11.858;2023-05-23T14:12:25;18.15;;;6.03;;
58083;SDS011;43882;51.550;11.858;2023-05-23T14:15:50;19.75;;;5.72;;
58083;SDS011;43882;51.550;11.858;2023-05-23T14:19:14;17.00;;;5.07;;
58083;SDS011;43882;51.550;11.858;2023-05-23T14:22:39;16.05;;;4.90;;
58083;SDS011;43882;51.550;11.858;2023-05-23T14:26:03;17.27;;;5.32;;
58083;SDS011;43882;51.550;11.858;2023-05-23T14:29:28;19.02;;;6.65;;
58083;SDS011;43882;51.550;11.858;2023-05-23T14:32:53;20.35;;;7.28;;
58083;SDS011;43882;51.550;11.858;2023-05-23T14:36:18;21.55;;;9.35;;
58083;SDS011;43882;51.550;11.858;2023-05-23T14:39:42;20.83;;;8.93;;
58083;SDS011;43882;51.550;11.858;2023-05-23T14:43:07;22.38;;;8.98;;
58083;SDS011;43882;51.550;11.858;2023-05-23T14:46:32;22.00;;;8.90;;
58083;SDS011;43882;51.550;11.858;2023-05-23T14:49:56;21.20;;;7.80;;
58083;SDS011;43882;51.550;11.858;2023-05-23T14:53:25;22.40;;;8.80;;
58083;SDS011;43882;51.550;11.858;2023-05-23T14:56:50;21.67;;;8.48;;
58083;SDS011;43882;51.550;11.858;2023-05-23T15:00:15;23.48;;;9.48;;
58083;SDS011;43882;51.550;11.858;2023-05-23T15:03:39;23.73;;;10.05;;
58083;SDS011;43882;51.550;11.858;2023-05-23T15:07:04;25.85;;;11.20;;
58083;SDS011;43882;51.550;11.858;2023-05-23T15:10:29;29.63;;;12.55;;
58083;SDS011;43882;51.550;11.858;2023-05-23T15:13:54;27.48;;;13.07;;
58083;SDS011;43882;51.550;11.858;2023-05-23T15:17:26;29.70;;;12.00;;
58083;SDS011;43882;51.550;11.858;2023-05-23T15:20:52;25.77;;;10.65;;
58083;SDS011;43882;51.550;11.858;2023-05-23T15:24:16;25.65;;;9.95;;
58083;SDS011;43882;51.550;11.858;2023-05-23T15:27:41;21.75;;;8.80;;
58083;SDS011;43882;51.550;11.858;2023-05-23T15:31:05;22.20;;;8.38;;
58083;SDS011;43882;51.550;11.858;2023-05-23T15:34:30;22.60;;;7.60;;
58083;SDS011;43882;51.550;11.858;2023-05-23T15:37:55;23.27;;;9.93;;
58083;SDS011;43882;51.550;11.858;2023-05-23T15:41:19;25.65;;;10.38;;
58083;SDS011;43882;51.550;11.858;2023-05-23T15:44:44;25.92;;;10.13;;
58083;SDS011;43882;51.550;11.858;2023-05-23T15:48:08;24.10;;;10.63;;
58083;SDS011;43882;51.550;11.858;2023-05-23T15:51:33;26.17;;;11.25;;
58083;SDS011;43882;51.550;11.858;2023-05-23T15:54:58;27.63;;;11.35;;
58083;SDS011;43882;51.550;11.858;2023-05-23T15:58:23;24.42;;;11.05;;
58083;SDS011;43882;51.550;11.858;2023-05-23T16:01:47;26.00;;;9.52;;
58083;SDS011;43882;51.550;11.858;2023-05-23T16:05:12;21.83;;;8.10;;
58083;SDS011;43882;51.550;11.858;2023-05-23T16:08:36;25.73;;;8.48;;
58083;SDS011;43882;51.550;11.858;2023-05-23T16:12:01;22.52;;;8.63;;
58083;SDS011;43882;51.550;11.858;2023-05-23T16:15:26;21.25;;;7.13;;
58083;SDS011;43882;51.550;11.858;2023-05-23T16:18:50;21.33;;;8.00;;
58083;SDS011;43882;51.550;11.858;2023-05-23T16:22:15;20.00;;;7.47;;
58083;SDS011;43882;51.550;11.858;2023-05-23T16:25:40;20.58;;;8.23;;
58083;SDS011;43882;51.550;11.858;2023-05-23T16:29:04;21.80;;;8.77;;
58083;SDS011;43882;51.550;11.858;2023-05-23T16:32:30;23.17;;;8.70;;
58083;SDS011;43882;51.550;11.858;2023-05-23T16:35:54;21.23;;;8.52;;
58083;SDS011;43882;51.550;11.858;2023-05-23T16:39:19;24.73;;;9.45;;
58083;SDS011;43882;51.550;11.858;2023-05-23T16:42:44;24.65;;;8.63;;
58083;SDS011;43882;51.550;11.858;2023-05-23T16:46:08;20.67;;;7.00;;
58083;SDS011;43882;51.550;11.858;2023-05-23T16:49:33;19.50;;;6.45;;
58083;SDS011;43882;51.550;11.858;2023-05-23T16:52:57;19.17;;;6.10;;
58083;SDS011;43882;51.550;11.858;2023-05-23T16:56:22;18.42;;;5.60;;
58083;SDS011;43882;51.550;11.858;2023-05-23T16:59:47;21.38;;;6.07;;
58083;SDS011;43882;51.550;11.858;2023-05-23T17:03:11;20.30;;;5.63;;
58083;SDS011;43882;51.550;11.858;2023-05-23T17:06:36;20.35;;;6.68;;
58083;SDS011;43882;51.550;11.858;2023-05-23T17:10:00;20.13;;;5.75;;
58083;SDS011;43882;51.550;11.858;2023-05-23T17:13:25;19.48;;;5.53;;
58083;SDS011;43882;51.550;11.858;2023-05-23T17:16:50;18.27;;;5.75;;
58083;SDS011;43882;51.550;11.858;2023-05-23T17:20:15;16.60;;;6.00;;
58083;SDS011;43882;51.550;11.858;2023-05-23T17:23:40;22.67;;;7.07;;
58083;SDS011;43882;51.550;11.858;2023-05-23T17:27:05;19.80;;;6.78;;
58083;SDS011;43882;51.550;11.858;2023-05-23T17:30:29;20.23;;;6.25;;
58083;SDS011;43882;51.550;11.858;2023-05-23T17:33:54;24.38;;;7.18;;
58083;SDS011;43882;51.550;11.858;2023-05-23T17:37:19;16.98;;;5.30;;
58083;SDS011;43882;51.550;11.858;2023-05-23T17:40:43;21.20;;;5.28;;
58083;SDS011;43882;51.550;11.858;2023-05-23T17:44:08;16.73;;;5.13;;
58083;SDS011;43882;51.550;11.858;2023-05-23T17:47:35;17.67;;;4.80;;
58083;SDS011;43882;51.550;11.858;2023-05-23T17:51:00;17.35;;;5.00;;
58083;SDS011;43882;51.550;11.858;2023-05-23T17:54:28;18.42;;;5.32;;
58083;SDS011;43882;51.550;11.858;2023-05-23T17:57:53;18.67;;;4.80;;
58083;SDS011;43882;51.550;11.858;2023-05-23T18:01:17;16.90;;;5.07;;
58083;SDS011;43882;51.550;11.858;2023-05-23T18:04:42;17.83;;;4.63;;
58083;SDS011;43882;51.550;11.858;2023-05-23T18:08:07;19.70;;;5.45;;
58083;SDS011;43882;51.550;11.858;2023-05-23T18:11:31;19.67;;;5.13;;
58083;SDS011;43882;51.550;11.858;2023-05-23T18:14:56;22.27;;;6.25;;
58083;SDS011;43882;51.550;11.858;2023-05-23T18:18:20;18.23;;;5.40;;
58083;SDS011;43882;51.550;11.858;2023-05-23T18:21:46;18.80;;;4.57;;
58083;SDS011;43882;51.550;11.858;2023-05-23T18:25:14;16.58;;;5.15;;
58083;SDS011;43882;51.550;11.858;2023-05-23T18:28:39;19.67;;;5.63;;
58083;SDS011;43882;51.550;11.858;2023-05-23T18:32:04;21.50;;;4.90;;
58083;SDS011;43882;51.550;11.858;2023-05-23T18:35:29;19.65;;;4.95;;
58083;SDS011;43882;51.550;11.858;2023-05-23T18:38:55;19.98;;;4.90;;
58083;SDS011;43882;51.550;11.858;2023-05-23T18:42:22;18.35;;;4.95;;
58083;SDS011;43882;51.550;11.858;2023-05-23T18:45:46;20.45;;;4.90;;
58083;SDS011;43882;51.550;11.858;2023-05-23T18:49:11;18.83;;;4.95;;
58083;SDS011;43882;51.550;11.858;2023-05-23T18:52:36;23.20;;;5.57;;
58083;SDS011;43882;51.550;11.858;2023-05-23T18:56:01;18.70;;;5.00;;
58083;SDS011;43882;51.550;11.858;2023-05-23T18:59:27;19.35;;;4.50;;
58083;SDS011;43882;51.550;11.858;2023-05-23T19:02:51;19.35;;;4.93;;
58083;SDS011;43882;51.550;11.858;2023-05-23T19:06:16;18.90;;;4.88;;
58083;SDS011;43882;51.550;11.858;2023-05-23T19:09:41;18.80;;;4.75;;
58083;SDS011;43882;51.550;11.858;2023-05-23T19:13:05;18.13;;;4.57;;
58083;SDS011;43882;51.550;11.858;2023-05-23T19:16:30;20.00;;;5.03;;
58083;SDS011;43882;51.550;11.858;2023-05-23T19:19:54;19.05;;;4.80;;
58083;SDS011;43882;51.550;11.858;2023-05-23T19:23:20;19.40;;;5.07;;
58083;SDS011;43882;51.550;11.858;2023-05-23T19:26:45;17.92;;;4.70;;
58083;SDS011;43882;51.550;11.858;2023-05-23T19:30:09;20.20;;;5.40;;
58083;SDS011;43882;51.550;11.858;2023-05-23T19:33:36;17.70;;;5.20;;
58083;SDS011;43882;51.550;11.858;2023-05-23T19:37:01;18.08;;;4.82;;
58083;SDS011;43882;51.550;11.858;2023-05-23T19:40:25;19.35;;;4.50;;
58083;SDS011;43882;51.550;11.858;2023-05-23T19:43:51;17.08;;;4.57;;
58083;SDS011;43882;51.550;11.858;2023-05-23T19:47:16;18.30;;;5.18;;
58083;SDS011;43882;51.550;11.858;2023-05-23T19:50:41;19.25;;;5.50;;
58083;SDS011;43882;51.550;11.858;2023-05-23T19:54:05;21.25;;;5.15;;
58083;SDS011;43882;51.550;11.858;2023-05-23T19:57:30;16.05;;;5.00;;
58083;SDS011;43882;51.550;11.858;2023-05-23T20:00:56;17.58;;;4.95;;
58083;SDS011;43882;51.550;11.858;2023-05-23T20:04:20;16.17;;;4.45;;
58083;SDS011;43882;51.550;11.858;2023-05-23T20:07:45;19.48;;;5.68;;
58083;SDS011;43882;51.550;11.858;2023-05-23T20:11:10;17.45;;;4.75;;
58083;SDS011;43882;51.550;11.858;2023-05-23T20:14:34;19.50;;;4.97;;
58083;SDS011;43882;51.550;11.858;2023-05-23T20:17:59;15.77;;;4.65;;